sensor_id;sensor_type;location;lat;lon;timestamp;P1;durP1;ratioP1;P2;durP2;ratioP2
28605;SDS011;46498;49.968;7.754;2023-10-13T00:02:28;15.23;;;7.30;;
28605;SDS011;46498;49.968;7.754;2023-10-13T00:07:29;15.35;;;7.32;;
28605;SDS011;46498;49.968;7.754;2023-10-13T00:12:30;16.60;;;8.23;;
28605;SDS011;46498;49.968;7.754;2023-10-13T00:17:32;12.68;;;7.43;;
28605;SDS011;46498;49.968;7.754;2023-10-13T00:22:33;15.95;;;7.20;;
28605;SDS011;46498;49.968;7.754;2023-10-13T00:27:34;13.43;;;6.75;;
28605;SDS011;46498;49.968;7.754;2023-10-13T00:32:42;11.30;;;7.10;;
28605;SDS011;46498;49.968;7.754;2023-10-13T00:37:43;15.02;;;6.75;;
28605;SDS011;46498;49.968;7.754;2023-10-13T00:42:45;15.52;;;6.70;;
28605;SDS011;46498;49.968;7.754;2023-10-13T00:47:51;13.95;;;7.78;;
28605;SDS011;46498;49.968;7.754;2023-10-13T00:52:57;13.60;;;6.72;;
28605;SDS011;46498;49.968;7.754;2023-10-13T00:57:59;12.15;;;6.55;;
28605;SDS011;46498;49.968;7.754;2023-10-13T01:03:03;15.23;;;6.03;;
28605;SDS011;46498;49.968;7.754;2023-10-13T01:08:07;13.75;;;6.10;;
28605;SDS011;46498;49.968;7.754;2023-10-13T01:13:12;12.82;;;7.15;;
28605;SDS011;46498;49.968;7.754;2023-10-13T01:18:13;15.50;;;7.00;;
28605;SDS011;46498;49.968;7.754;2023-10-13T01:23:14;14.63;;;6.35;;
28605;SDS011;46498;49.968;7.754;2023-10-13T01:28:38;10.60;;;6.82;;
28605;SDS011;46498;49.968;7.754;2023-10-13T01:33:47;15.35;;;8.05;;
28605;SDS011;46498;49.968;7.754;2023-10-13T01:38:50;15.25;;;7.35;;
28605;SDS011;46498;49.968;7.754;2023-10-13T01:43:52;20.12;;;8.52;;
28605;SDS011;46498;49.968;7.754;2023-10-13T01:48:53;15.07;;;7.37;;
28605;SDS011;46498;49.968;7.754;2023-10-13T01:53:54;12.07;;;6.47;;
28605;SDS011;46498;49.968;7.754;2023-10-13T01:58:58;18.50;;;7.65;;
28605;SDS011;46498;49.968;7.754;2023-10-13T02:03:59;12.82;;;7.22;;
28605;SDS011;46498;49.968;7.754;2023-10-13T02:09:07;15.82;;;7.25;;
28605;SDS011;46498;49.968;7.754;2023-10-13T02:14:26;17.70;;;7.43;;
28605;SDS011;46498;49.968;7.754;2023-10-13T02:19:27;19.73;;;8.00;;
28605;SDS011;46498;49.968;7.754;2023-10-13T02:24:30;16.17;;;7.15;;
28605;SDS011;46498;49.968;7.754;2023-10-13T02:29:31;24.17;;;10.13;;
28605;SDS011;46498;49.968;7.754;2023-10-13T02:34:39;20.30;;;8.38;;
28605;SDS011;46498;49.968;7.754;2023-10-13T02:39:44;17.87;;;7.93;;
28605;SDS011;46498;49.968;7.754;2023-10-13T02:44:45;24.10;;;8.70;;
28605;SDS011;46498;49.968;7.754;2023-10-13T02:49:46;18.17;;;7.43;;
28605;SDS011;46498;49.968;7.754;2023-10-13T02:54:48;16.90;;;8.43;;
28605;SDS011;46498;49.968;7.754;2023-10-13T02:59:51;25.02;;;8.02;;
28605;SDS011;46498;49.968;7.754;2023-10-13T03:04:57;11.60;;;7.03;;
28605;SDS011;46498;49.968;7.754;2023-10-13T03:10:00;22.45;;;9.43;;
28605;SDS011;46498;49.968;7.754;2023-10-13T03:15:10;22.02;;;9.77;;
28605;SDS011;46498;49.968;7.754;2023-10-13T03:20:17;13.95;;;7.30;;
28605;SDS011;46498;49.968;7.754;2023-10-13T03:25:23;25.85;;;9.30;;
28605;SDS011;46498;49.968;7.754;2023-10-13T03:30:29;18.80;;;8.38;;
28605;SDS011;46498;49.968;7.754;2023-10-13T03:35:42;28.40;;;8.88;;
28605;SDS011;46498;49.968;7.754;2023-10-13T03:40:44;17.97;;;8.63;;
28605;SDS011;46498;49.968;7.754;2023-10-13T03:45:49;17.33;;;8.35;;
28605;SDS011;46498;49.968;7.754;2023-10-13T03:51:09;26.77;;;9.32;;
28605;SDS011;46498;49.968;7.754;2023-10-13T03:56:15;21.77;;;8.95;;
28605;SDS011;46498;49.968;7.754;2023-10-13T04:01:24;21.15;;;9.80;;
28605;SDS011;46498;49.968;7.754;2023-10-13T04:06:32;17.90;;;9.80;;
28605;SDS011;46498;49.968;7.754;2023-10-13T04:13:25;20.77;;;10.00;;
28605;SDS011;46498;49.968;7.754;2023-10-13T04:18:44;25.55;;;10.63;;
28605;SDS011;46498;49.968;7.754;2023-10-13T04:24:09;22.17;;;10.50;;
28605;SDS011;46498;49.968;7.754;2023-10-13T04:29:30;29.80;;;11.48;;
28605;SDS011;46498;49.968;7.754;2023-10-13T04:41:19;24.67;;;12.23;;
28605;SDS011;46498;49.968;7.754;2023-10-13T04:46:23;22.85;;;11.95;;
28605;SDS011;46498;49.968;7.754;2023-10-13T04:51:40;24.95;;;11.68;;
28605;SDS011;46498;49.968;7.754;2023-10-13T04:57:20;22.33;;;11.57;;
28605;SDS011;46498;49.968;7.754;2023-10-13T05:02:43;25.60;;;12.90;;
28605;SDS011;46498;49.968;7.754;2023-10-13T05:11:16;29.87;;;13.20;;
28605;SDS011;46498;49.968;7.754;2023-10-13T05:16:36;27.87;;;14.15;;
28605;SDS011;46498;49.968;7.754;2023-10-13T05:21:56;21.77;;;12.65;;
28605;SDS011;46498;49.968;7.754;2023-10-13T05:27:15;21.83;;;12.00;;
28605;SDS011;46498;49.968;7.754;2023-10-13T05:32:34;27.50;;;13.10;;
28605;SDS011;46498;49.968;7.754;2023-10-13T05:37:54;22.15;;;11.52;;
28605;SDS011;46498;49.968;7.754;2023-10-13T05:43:14;27.33;;;12.77;;
28605;SDS011;46498;49.968;7.754;2023-10-13T05:48:33;28.35;;;11.93;;
28605;SDS011;46498;49.968;7.754;2023-10-13T05:53:53;21.50;;;11.40;;
28605;SDS011;46498;49.968;7.754;2023-10-13T05:59:13;21.50;;;11.40;;
28605;SDS011;46498;49.968;7.754;2023-10-13T06:04:32;30.80;;;12.15;;
28605;SDS011;46498;49.968;7.754;2023-10-13T06:09:52;21.15;;;10.38;;
28605;SDS011;46498;49.968;7.754;2023-10-13T06:15:11;30.73;;;12.32;;
28605;SDS011;46498;49.968;7.754;2023-10-13T06:20:31;23.00;;;10.77;;
28605;SDS011;46498;49.968;7.754;2023-10-13T06:25:51;28.58;;;11.18;;
28605;SDS011;46498;49.968;7.754;2023-10-13T06:31:12;16.10;;;9.30;;
28605;SDS011;46498;49.968;7.754;2023-10-13T06:41:26;20.73;;;9.60;;
28605;SDS011;46498;49.968;7.754;2023-10-13T06:46:35;22.48;;;8.82;;
28605;SDS011;46498;49.968;7.754;2023-10-13T06:51:36;21.02;;;8.65;;
28605;SDS011;46498;49.968;7.754;2023-10-13T06:56:40;23.17;;;7.82;;
28605;SDS011;46498;49.968;7.754;2023-10-13T07:01:41;22.90;;;8.65;;
28605;SDS011;46498;49.968;7.754;2023-10-13T07:06:45;24.40;;;8.65;;
28605;SDS011;46498;49.968;7.754;2023-10-13T07:11:49;26.33;;;7.97;;
28605;SDS011;46498;49.968;7.754;2023-10-13T07:16:57;20.75;;;7.28;;
28605;SDS011;46498;49.968;7.754;2023-10-13T07:22:01;18.98;;;7.45;;
28605;SDS011;46498;49.968;7.754;2023-10-13T07:27:21;22.65;;;8.20;;
28605;SDS011;46498;49.968;7.754;2023-10-13T07:32:26;22.05;;;7.70;;
28605;SDS011;46498;49.968;7.754;2023-10-13T07:37:27;22.60;;;7.37;;
28605;SDS011;46498;49.968;7.754;2023-10-13T07:42:33;19.73;;;6.82;;
28605;SDS011;46498;49.968;7.754;2023-10-13T07:47:39;17.95;;;6.80;;
28605;SDS011;46498;49.968;7.754;2023-10-13T07:52:40;14.95;;;6.57;;
28605;SDS011;46498;49.968;7.754;2023-10-13T07:57:59;13.93;;;6.37;;
28605;SDS011;46498;49.968;7.754;2023-10-13T08:03:00;18.03;;;6.67;;
28605;SDS011;46498;49.968;7.754;2023-10-13T08:11:33;15.10;;;6.62;;
28605;SDS011;46498;49.968;7.754;2023-10-13T08:16:40;17.92;;;6.65;;
28605;SDS011;46498;49.968;7.754;2023-10-13T08:21:55;18.05;;;7.07;;
28605;SDS011;46498;49.968;7.754;2023-10-13T08:26:59;18.83;;;6.90;;
28605;SDS011;46498;49.968;7.754;2023-10-13T08:35:32;12.02;;;6.85;;
28605;SDS011;46498;49.968;7.754;2023-10-13T08:40:36;14.48;;;7.10;;
28605;SDS011;46498;49.968;7.754;2023-10-13T08:46:10;12.85;;;6.20;;
28605;SDS011;46498;49.968;7.754;2023-10-13T08:51:25;18.00;;;7.10;;
28605;SDS011;46498;49.968;7.754;2023-10-13T08:56:43;19.67;;;7.00;;
28605;SDS011;46498;49.968;7.754;2023-10-13T09:01:48;17.45;;;7.32;;
28605;SDS011;46498;49.968;7.754;2023-10-13T09:07:03;22.98;;;7.35;;
28605;SDS011;46498;49.968;7.754;2023-10-13T09:17:40;12.27;;;7.12;;
28605;SDS011;46498;49.968;7.754;2023-10-13T09:22:49;16.73;;;6.75;;
28605;SDS011;46498;49.968;7.754;2023-10-13T09:28:54;15.57;;;6.37;;
28605;SDS011;46498;49.968;7.754;2023-10-13T09:33:55;19.55;;;7.57;;
28605;SDS011;46498;49.968;7.754;2023-10-13T09:38:56;19.35;;;6.80;;
28605;SDS011;46498;49.968;7.754;2023-10-13T09:44:13;22.40;;;7.12;;
28605;SDS011;46498;49.968;7.754;2023-10-13T09:49:19;12.93;;;6.57;;
28605;SDS011;46498;49.968;7.754;2023-10-13T09:55:03;18.50;;;7.25;;
28605;SDS011;46498;49.968;7.754;2023-10-13T10:00:15;14.85;;;5.85;;
28605;SDS011;46498;49.968;7.754;2023-10-13T10:05:37;11.40;;;6.32;;
28605;SDS011;46498;49.968;7.754;2023-10-13T10:10:44;11.98;;;7.00;;
28605;SDS011;46498;49.968;7.754;2023-10-13T10:16:12;17.98;;;7.05;;
28605;SDS011;46498;49.968;7.754;2023-10-13T10:21:32;15.43;;;7.60;;
28605;SDS011;46498;49.968;7.754;2023-10-13T10:26:33;14.38;;;6.87;;
28605;SDS011;46498;49.968;7.754;2023-10-13T10:31:34;14.70;;;6.55;;
28605;SDS011;46498;49.968;7.754;2023-10-13T10:36:41;15.63;;;7.05;;
28605;SDS011;46498;49.968;7.754;2023-10-13T10:41:43;11.90;;;6.82;;
28605;SDS011;46498;49.968;7.754;2023-10-13T10:46:52;16.52;;;6.90;;
28605;SDS011;46498;49.968;7.754;2023-10-13T10:52:01;12.20;;;6.65;;
28605;SDS011;46498;49.968;7.754;2023-10-13T10:57:04;20.10;;;6.90;;
28605;SDS011;46498;49.968;7.754;2023-10-13T11:02:11;13.82;;;6.20;;
28605;SDS011;46498;49.968;7.754;2023-10-13T11:07:27;13.77;;;6.57;;
28605;SDS011;46498;49.968;7.754;2023-10-13T11:12:30;11.90;;;5.87;;
28605;SDS011;46498;49.968;7.754;2023-10-13T11:17:34;14.13;;;6.75;;
28605;SDS011;46498;49.968;7.754;2023-10-13T11:22:52;15.43;;;7.25;;
28605;SDS011;46498;49.968;7.754;2023-10-13T11:27:53;13.50;;;6.32;;
28605;SDS011;46498;49.968;7.754;2023-10-13T11:33:00;9.70;;;6.35;;
28605;SDS011;46498;49.968;7.754;2023-10-13T11:38:09;16.73;;;6.93;;
28605;SDS011;46498;49.968;7.754;2023-10-13T11:43:15;14.40;;;6.53;;
28605;SDS011;46498;49.968;7.754;2023-10-13T11:48:16;15.38;;;7.03;;
28605;SDS011;46498;49.968;7.754;2023-10-13T11:53:17;14.38;;;6.18;;
28605;SDS011;46498;49.968;7.754;2023-10-13T11:58:18;16.73;;;6.70;;
28605;SDS011;46498;49.968;7.754;2023-10-13T12:03:19;14.23;;;6.35;;
28605;SDS011;46498;49.968;7.754;2023-10-13T12:08:38;12.45;;;6.12;;
28605;SDS011;46498;49.968;7.754;2023-10-13T12:13:49;16.30;;;6.85;;
28605;SDS011;46498;49.968;7.754;2023-10-13T12:18:50;16.08;;;5.82;;
28605;SDS011;46498;49.968;7.754;2023-10-13T12:23:54;15.68;;;6.37;;
28605;SDS011;46498;49.968;7.754;2023-10-13T12:28:55;16.50;;;5.97;;
28605;SDS011;46498;49.968;7.754;2023-10-13T12:34:06;14.98;;;6.37;;
28605;SDS011;46498;49.968;7.754;2023-10-13T12:39:17;14.52;;;6.07;;
28605;SDS011;46498;49.968;7.754;2023-10-13T12:44:37;13.82;;;6.03;;
28605;SDS011;46498;49.968;7.754;2023-10-13T12:49:57;14.32;;;6.30;;
28605;SDS011;46498;49.968;7.754;2023-10-13T12:55:08;9.88;;;5.80;;
28605;SDS011;46498;49.968;7.754;2023-10-13T13:00:11;19.58;;;6.28;;
28605;SDS011;46498;49.968;7.754;2023-10-13T13:05:23;21.42;;;6.15;;
28605;SDS011;46498;49.968;7.754;2023-10-13T13:10:29;11.68;;;6.00;;
28605;SDS011;46498;49.968;7.754;2023-10-13T13:15:35;11.40;;;6.47;;
28605;SDS011;46498;49.968;7.754;2023-10-13T13:20:39;16.55;;;5.85;;
28605;SDS011;46498;49.968;7.754;2023-10-13T13:25:45;17.35;;;6.28;;
28605;SDS011;46498;49.968;7.754;2023-10-13T13:30:46;13.95;;;5.90;;
28605;SDS011;46498;49.968;7.754;2023-10-13T13:35:54;15.88;;;5.60;;
28605;SDS011;46498;49.968;7.754;2023-10-13T13:40:55;11.88;;;6.30;;
28605;SDS011;46498;49.968;7.754;2023-10-13T13:45:59;11.88;;;5.70;;
28605;SDS011;46498;49.968;7.754;2023-10-13T13:51:07;15.35;;;5.80;;
28605;SDS011;46498;49.968;7.754;2023-10-13T13:56:27;9.30;;;5.68;;
28605;SDS011;46498;49.968;7.754;2023-10-13T14:01:29;22.17;;;6.20;;
28605;SDS011;46498;49.968;7.754;2023-10-13T14:06:30;13.98;;;5.97;;
28605;SDS011;46498;49.968;7.754;2023-10-13T14:11:31;11.88;;;6.03;;
28605;SDS011;46498;49.968;7.754;2023-10-13T14:17:06;15.75;;;5.93;;
28605;SDS011;46498;49.968;7.754;2023-10-13T14:22:07;21.60;;;5.85;;
28605;SDS011;46498;49.968;7.754;2023-10-13T14:27:12;15.50;;;6.47;;
28605;SDS011;46498;49.968;7.754;2023-10-13T14:32:18;12.55;;;5.90;;
28605;SDS011;46498;49.968;7.754;2023-10-13T14:37:20;17.55;;;5.93;;
28605;SDS011;46498;49.968;7.754;2023-10-13T14:42:29;13.18;;;6.18;;
28605;SDS011;46498;49.968;7.754;2023-10-13T14:47:36;20.70;;;5.97;;
28605;SDS011;46498;49.968;7.754;2023-10-13T14:52:40;14.02;;;5.85;;
28605;SDS011;46498;49.968;7.754;2023-10-13T14:57:40;11.20;;;5.03;;
28605;SDS011;46498;49.968;7.754;2023-10-13T15:02:42;14.27;;;5.93;;
28605;SDS011;46498;49.968;7.754;2023-10-13T15:07:43;13.60;;;5.65;;
28605;SDS011;46498;49.968;7.754;2023-10-13T15:12:45;8.50;;;5.18;;
28605;SDS011;46498;49.968;7.754;2023-10-13T15:17:46;11.25;;;5.45;;
28605;SDS011;46498;49.968;7.754;2023-10-13T15:22:48;17.12;;;5.35;;
28605;SDS011;46498;49.968;7.754;2023-10-13T15:27:49;16.77;;;5.70;;
28605;SDS011;46498;49.968;7.754;2023-10-13T15:32:56;10.48;;;5.35;;
28605;SDS011;46498;49.968;7.754;2023-10-13T15:37:58;12.43;;;5.13;;
28605;SDS011;46498;49.968;7.754;2023-10-13T15:42:59;11.23;;;5.05;;
28605;SDS011;46498;49.968;7.754;2023-10-13T15:48:00;11.77;;;5.45;;
28605;SDS011;46498;49.968;7.754;2023-10-13T15:53:19;12.45;;;5.15;;
28605;SDS011;46498;49.968;7.754;2023-10-13T15:58:20;17.42;;;5.40;;
28605;SDS011;46498;49.968;7.754;2023-10-13T16:03:20;11.12;;;5.15;;
28605;SDS011;46498;49.968;7.754;2023-10-13T16:08:24;10.07;;;5.60;;
28605;SDS011;46498;49.968;7.754;2023-10-13T16:13:24;10.73;;;4.85;;
28605;SDS011;46498;49.968;7.754;2023-10-13T16:18:25;13.07;;;5.18;;
28605;SDS011;46498;49.968;7.754;2023-10-13T16:23:26;15.70;;;5.20;;
28605;SDS011;46498;49.968;7.754;2023-10-13T16:28:28;9.27;;;5.10;;
28605;SDS011;46498;49.968;7.754;2023-10-13T16:33:29;9.73;;;4.50;;
28605;SDS011;46498;49.968;7.754;2023-10-13T16:38:33;12.60;;;5.12;;
28605;SDS011;46498;49.968;7.754;2023-10-13T16:43:37;18.85;;;5.18;;
28605;SDS011;46498;49.968;7.754;2023-10-13T16:48:38;11.40;;;4.40;;
28605;SDS011;46498;49.968;7.754;2023-10-13T16:53:42;15.27;;;5.27;;
28605;SDS011;46498;49.968;7.754;2023-10-13T16:58:47;14.82;;;4.80;;
28605;SDS011;46498;49.968;7.754;2023-10-13T17:03:47;11.73;;;5.03;;
28605;SDS011;46498;49.968;7.754;2023-10-13T17:08:50;11.10;;;5.20;;
28605;SDS011;46498;49.968;7.754;2023-10-13T17:13:53;15.70;;;4.60;;
28605;SDS011;46498;49.968;7.754;2023-10-13T17:18:54;12.88;;;4.85;;
28605;SDS011;46498;49.968;7.754;2023-10-13T17:23:55;15.15;;;4.28;;
28605;SDS011;46498;49.968;7.754;2023-10-13T17:28:56;14.50;;;4.60;;
28605;SDS011;46498;49.968;7.754;2023-10-13T17:34:03;11.85;;;3.92;;
28605;SDS011;46498;49.968;7.754;2023-10-13T17:39:04;10.25;;;4.03;;
28605;SDS011;46498;49.968;7.754;2023-10-13T17:44:09;15.15;;;3.87;;
28605;SDS011;46498;49.968;7.754;2023-10-13T17:49:10;10.98;;;4.15;;
28605;SDS011;46498;49.968;7.754;2023-10-13T17:54:12;11.18;;;3.90;;
28605;SDS011;46498;49.968;7.754;2023-10-13T17:59:13;17.48;;;4.00;;
28605;SDS011;46498;49.968;7.754;2023-10-13T18:04:14;8.93;;;4.15;;
28605;SDS011;46498;49.968;7.754;2023-10-13T18:09:17;13.68;;;3.90;;
28605;SDS011;46498;49.968;7.754;2023-10-13T18:14:18;11.60;;;3.33;;
28605;SDS011;46498;49.968;7.754;2023-10-13T18:19:20;10.82;;;3.85;;
28605;SDS011;46498;49.968;7.754;2023-10-13T18:24:21;17.15;;;3.95;;
28605;SDS011;46498;49.968;7.754;2023-10-13T18:29:23;10.77;;;3.92;;
28605;SDS011;46498;49.968;7.754;2023-10-13T18:34:24;12.00;;;3.50;;
28605;SDS011;46498;49.968;7.754;2023-10-13T18:39:28;16.85;;;4.20;;
28605;SDS011;46498;49.968;7.754;2023-10-13T18:44:38;12.07;;;4.20;;
28605;SDS011;46498;49.968;7.754;2023-10-13T18:49:41;13.55;;;4.07;;
28605;SDS011;46498;49.968;7.754;2023-10-13T18:54:42;18.08;;;3.97;;
28605;SDS011;46498;49.968;7.754;2023-10-13T18:59:43;14.32;;;4.70;;
28605;SDS011;46498;49.968;7.754;2023-10-13T19:04:44;9.27;;;3.78;;
28605;SDS011;46498;49.968;7.754;2023-10-13T19:09:45;11.73;;;3.70;;
28605;SDS011;46498;49.968;7.754;2023-10-13T19:14:46;12.90;;;4.07;;
28605;SDS011;46498;49.968;7.754;2023-10-13T19:19:48;8.70;;;3.67;;
28605;SDS011;46498;49.968;7.754;2023-10-13T19:24:49;11.63;;;4.20;;
28605;SDS011;46498;49.968;7.754;2023-10-13T19:29:49;10.40;;;3.95;;
28605;SDS011;46498;49.968;7.754;2023-10-13T19:34:51;14.60;;;4.55;;
28605;SDS011;46498;49.968;7.754;2023-10-13T19:39:53;13.27;;;4.00;;
28605;SDS011;46498;49.968;7.754;2023-10-13T19:44:59;16.62;;;4.43;;
28605;SDS011;46498;49.968;7.754;2023-10-13T19:50:05;11.68;;;3.92;;
28605;SDS011;46498;49.968;7.754;2023-10-13T19:55:06;10.48;;;4.03;;
28605;SDS011;46498;49.968;7.754;2023-10-13T20:00:08;14.05;;;4.28;;
28605;SDS011;46498;49.968;7.754;2023-10-13T20:05:20;18.58;;;4.47;;
28605;SDS011;46498;49.968;7.754;2023-10-13T20:10:21;18.45;;;5.05;;
28605;SDS011;46498;49.968;7.754;2023-10-13T20:15:22;9.88;;;4.32;;
28605;SDS011;46498;49.968;7.754;2023-10-13T20:20:23;10.98;;;4.53;;
28605;SDS011;46498;49.968;7.754;2023-10-13T20:25:29;11.57;;;4.65;;
28605;SDS011;46498;49.968;7.754;2023-10-13T20:30:30;13.75;;;4.65;;
28605;SDS011;46498;49.968;7.754;2023-10-13T20:35:33;13.82;;;5.55;;
28605;SDS011;46498;49.968;7.754;2023-10-13T20:40:34;9.50;;;4.75;;
28605;SDS011;46498;49.968;7.754;2023-10-13T20:45:37;16.40;;;5.40;;
28605;SDS011;46498;49.968;7.754;2023-10-13T20:50:38;8.73;;;4.53;;
28605;SDS011;46498;49.968;7.754;2023-10-13T20:55:39;16.52;;;5.60;;
28605;SDS011;46498;49.968;7.754;2023-10-13T21:00:40;14.30;;;5.15;;
28605;SDS011;46498;49.968;7.754;2023-10-13T21:05:45;13.98;;;4.80;;
28605;SDS011;46498;49.968;7.754;2023-10-13T21:10:49;10.30;;;5.05;;
28605;SDS011;46498;49.968;7.754;2023-10-13T21:15:53;40.45;;;20.92;;
28605;SDS011;46498;49.968;7.754;2023-10-13T21:21:11;16.45;;;5.72;;
28605;SDS011;46498;49.968;7.754;2023-10-13T21:26:23;19.25;;;5.57;;
28605;SDS011;46498;49.968;7.754;2023-10-13T21:31:27;13.25;;;5.57;;
28605;SDS011;46498;49.968;7.754;2023-10-13T21:36:28;12.50;;;6.07;;
28605;SDS011;46498;49.968;7.754;2023-10-13T21:41:28;11.10;;;5.72;;
28605;SDS011;46498;49.968;7.754;2023-10-13T21:46:30;9.52;;;5.32;;
28605;SDS011;46498;49.968;7.754;2023-10-13T21:51:31;12.25;;;6.15;;
28605;SDS011;46498;49.968;7.754;2023-10-13T21:56:33;11.05;;;5.72;;
28605;SDS011;46498;49.968;7.754;2023-10-13T22:01:35;11.30;;;5.93;;
28605;SDS011;46498;49.968;7.754;2023-10-13T22:06:40;13.20;;;6.12;;
28605;SDS011;46498;49.968;7.754;2023-10-13T22:11:41;18.42;;;5.93;;
28605;SDS011;46498;49.968;7.754;2023-10-13T22:16:42;14.45;;;6.00;;
28605;SDS011;46498;49.968;7.754;2023-10-13T22:21:43;14.35;;;6.30;;
28605;SDS011;46498;49.968;7.754;2023-10-13T22:26:44;11.20;;;5.43;;
28605;SDS011;46498;49.968;7.754;2023-10-13T22:31:45;15.75;;;5.93;;
28605;SDS011;46498;49.968;7.754;2023-10-13T22:36:46;14.43;;;5.70;;
28605;SDS011;46498;49.968;7.754;2023-10-13T22:42:05;24.40;;;6.40;;
28605;SDS011;46498;49.968;7.754;2023-10-13T22:47:08;16.90;;;6.18;;
28605;SDS011;46498;49.968;7.754;2023-10-13T22:52:11;18.95;;;6.20;;
28605;SDS011;46498;49.968;7.754;2023-10-13T22:57:13;14.75;;;6.12;;
28605;SDS011;46498;49.968;7.754;2023-10-13T23:02:14;15.95;;;6.22;;
28605;SDS011;46498;49.968;7.754;2023-10-13T23:07:15;15.35;;;5.90;;
28605;SDS011;46498;49.968;7.754;2023-10-13T23:12:17;12.20;;;5.82;;
28605;SDS011;46498;49.968;7.754;2023-10-13T23:17:20;15.40;;;6.45;;
28605;SDS011;46498;49.968;7.754;2023-10-13T23:22:22;19.73;;;6.47;;
28605;SDS011;46498;49.968;7.754;2023-10-13T23:27:25;16.85;;;5.62;;
28605;SDS011;46498;49.968;7.754;2023-10-13T23:32:25;19.77;;;5.55;;
28605;SDS011;46498;49.968;7.754;2023-10-13T23:37:27;27.20;;;6.43;;
28605;SDS011;46498;49.968;7.754;2023-10-13T23:42:31;19.85;;;6.07;;
28605;SDS011;46498;49.968;7.754;2023-10-13T23:47:55;16.62;;;5.25;;
28605;SDS011;46498;49.968;7.754;2023-10-13T23:52:59;12.43;;;6.05;;
28605;SDS011;46498;49.968;7.754;2023-10-13T23:58:00;14.02;;;5.50;;
